Terminal Aerodrome Forecast
Issued by NWS Amarillo, TX

Home | Current Version | Previous Version | Text Only | Print | Product List | Glossary On
Versions: 1 2 3 4 5 6 7 8 9 10 11 12 13
000
FTUS44 KAMA 230500
TAFDHT
TAF
KDHT 230520Z 2306/2406 18010KT P6SM SCT110
     FM230800 21010KT P6SM BKN150
     FM231600 21018G28KT P6SM SCT090
     FM240100 18012KT P6SM SCT120=

USA.gov is the U.S. government's official web portal to all federal, state and local government web resources and services.